createdAt,value
2023-04-14T00:02:22.557Z,12.40
2023-04-14T00:04:57.292Z,12.30
2023-04-14T00:07:25.604Z,12.20
2023-04-14T00:09:52.439Z,12.20
2023-04-14T00:12:19.247Z,12.20
2023-04-14T00:14:46.433Z,12.20
2023-04-14T00:17:13.445Z,12.10
2023-04-14T00:19:40.480Z,12.10
2023-04-14T00:22:07.577Z,12.10
2023-04-14T00:24:40.822Z,12.00
2023-04-14T00:27:10.222Z,12.00
2023-04-14T00:29:41.631Z,12.00
2023-04-14T00:32:08.629Z,11.90
2023-04-14T00:34:35.418Z,11.80
2023-04-14T00:37:02.212Z,11.80
2023-04-14T00:39:29.083Z,11.80
2023-04-14T00:41:56.980Z,11.80
2023-04-14T00:44:25.468Z,11.80
2023-04-14T00:46:52.937Z,11.70
2023-04-14T00:49:20.204Z,11.70
2023-04-14T00:51:50.680Z,11.70
2023-04-14T00:54:20.072Z,11.70
2023-04-14T00:56:47.695Z,11.70
2023-04-14T00:59:16.585Z,11.70
2023-04-14T01:01:44.029Z,11.70
2023-04-14T01:04:11.794Z,11.60
2023-04-14T01:06:38.664Z,11.50
2023-04-14T01:09:07.307Z,11.50
2023-04-14T01:11:49.077Z,11.50
2023-04-14T01:14:45.039Z,11.40
2023-04-14T01:17:44.255Z,11.30
2023-04-14T01:20:47.100Z,11.30
2023-04-14T01:23:22.777Z,11.30
2023-04-14T01:26:11.710Z,11.20
2023-04-14T01:28:46.742Z,11.20
2023-04-14T01:31:27.714Z,11.20
2023-04-14T01:34:14.316Z,11.10
2023-04-14T01:36:57.183Z,11.10
2023-04-14T01:39:28.403Z,11.10
2023-04-14T01:41:58.527Z,11.00
2023-04-14T01:44:26.790Z,11.00
2023-04-14T01:46:59.933Z,11.00
2023-04-14T01:49:30.590Z,10.90
2023-04-14T01:51:57.401Z,11.00
2023-04-14T01:54:25.025Z,11.00
2023-04-14T01:56:52.878Z,11.00
2023-04-14T01:59:22.224Z,10.90
2023-04-14T02:01:51.340Z,10.90
2023-04-14T02:04:22.312Z,10.80
2023-04-14T02:06:51.490Z,10.70
2023-04-14T02:09:20.604Z,10.70
2023-04-14T02:11:49.498Z,10.60
2023-04-14T02:14:18.691Z,10.60
2023-04-14T02:16:48.656Z,10.60
2023-04-14T02:19:20.178Z,10.60
2023-04-14T02:21:49.877Z,10.60
2023-04-14T02:24:17.583Z,10.60
2023-04-14T02:26:53.676Z,10.60
2023-04-14T02:29:23.875Z,10.50
2023-04-14T02:31:56.706Z,10.50
2023-04-14T02:34:28.249Z,10.50
2023-04-14T02:36:57.890Z,10.50
2023-04-14T02:39:38.518Z,10.40
2023-04-14T02:42:14.378Z,10.40
2023-04-14T02:44:58.523Z,10.40
2023-04-14T02:47:38.596Z,10.40
2023-04-14T02:50:07.427Z,10.40
2023-04-14T02:52:35.232Z,10.40
2023-04-14T02:55:04.277Z,10.40
2023-04-14T02:57:33.492Z,10.40
2023-04-14T03:00:01.148Z,10.30
2023-04-14T03:02:29.092Z,10.30
2023-04-14T03:04:56.364Z,10.30
2023-04-14T03:07:25.363Z,10.40
2023-04-14T03:09:52.652Z,10.30
2023-04-14T03:12:20.093Z,10.30
2023-04-14T03:14:48.556Z,10.40
2023-04-14T03:17:18.650Z,10.30
2023-04-14T03:19:48.704Z,10.30
2023-04-14T03:22:17.971Z,10.30
2023-04-14T03:24:45.763Z,10.30
2023-04-14T03:27:16.949Z,10.30
2023-04-14T03:29:47.630Z,10.20
2023-04-14T03:32:16.513Z,10.10
2023-04-14T03:34:46.939Z,10.00
2023-04-14T03:37:18.645Z,10.00
2023-04-14T03:39:50.753Z,10.00
2023-04-14T03:42:19.923Z,10.00
2023-04-14T03:44:51.672Z,10.00
2023-04-14T03:47:19.488Z,10.00
2023-04-14T03:49:50.478Z,9.90
2023-04-14T03:52:21.205Z,9.90
2023-04-14T03:54:49.395Z,9.90
2023-04-14T03:57:17.910Z,9.80
2023-04-14T03:59:46.546Z,9.80
2023-04-14T04:02:14.095Z,9.80
2023-04-14T04:04:42.511Z,9.80
2023-04-14T04:07:13.241Z,9.70
2023-04-14T04:09:45.235Z,9.70
2023-04-14T04:12:18.409Z,9.70
2023-04-14T04:14:45.536Z,9.80
2023-04-14T04:17:16.021Z,9.80
2023-04-14T04:19:44.922Z,9.70
2023-04-14T04:22:16.817Z,9.70
2023-04-14T04:24:46.060Z,9.70
2023-04-14T04:27:27.148Z,9.60
2023-04-14T04:29:56.075Z,9.60
2023-04-14T04:32:23.887Z,9.50
2023-04-14T04:34:51.415Z,9.50
2023-04-14T04:37:20.557Z,9.50
2023-04-14T04:39:49.232Z,9.50
2023-04-14T04:42:16.611Z,9.50
2023-04-14T04:44:43.533Z,9.40
2023-04-14T04:47:12.374Z,9.40
2023-04-14T04:49:39.160Z,9.30
2023-04-14T04:52:06.179Z,9.30
2023-04-14T04:54:33.230Z,9.30
2023-04-14T04:57:00.322Z,9.30
2023-04-14T04:59:27.548Z,9.30
2023-04-14T05:01:54.378Z,9.40
2023-04-14T05:04:21.662Z,9.40
2023-04-14T05:06:48.501Z,9.40
2023-04-14T05:09:16.016Z,9.40
2023-04-14T05:11:42.907Z,9.30
2023-04-14T05:14:10.826Z,9.30
2023-04-14T05:16:37.826Z,9.30
2023-04-14T05:19:05.003Z,9.30
2023-04-14T05:21:31.848Z,9.30
2023-04-14T05:23:58.750Z,9.30
2023-04-14T05:28:55.513Z,9.30
2023-04-14T05:31:23.752Z,9.40
2023-04-14T05:33:51.142Z,9.40
2023-04-14T05:36:18.004Z,9.50
2023-04-14T05:38:44.843Z,9.60
2023-04-14T05:41:12.384Z,9.60
2023-04-14T05:43:39.187Z,9.70
2023-04-14T05:46:06.106Z,9.80
2023-04-14T05:48:34.353Z,9.80
2023-04-14T05:51:01.766Z,9.90
2023-04-14T05:53:28.764Z,10.00
2023-04-14T05:55:57.319Z,10.10
2023-04-14T05:58:26.900Z,10.20
2023-04-14T06:00:53.789Z,10.30
2023-04-14T06:03:21.092Z,10.40
2023-04-14T06:05:48.448Z,10.60
2023-04-14T06:08:15.910Z,10.70
2023-04-14T06:10:42.748Z,10.90
2023-04-14T06:13:09.710Z,11.00
2023-04-14T06:15:37.196Z,11.20
2023-04-14T06:18:04.229Z,11.40
2023-04-14T06:20:32.611Z,11.50
2023-04-14T06:23:01.024Z,11.60
2023-04-14T06:25:27.924Z,11.80
2023-04-14T06:27:54.852Z,11.90
2023-04-14T06:30:21.860Z,12.10
2023-04-14T06:32:51.902Z,12.30
2023-04-14T06:35:32.022Z,12.40
2023-04-14T06:38:00.848Z,12.50
2023-04-14T06:40:27.856Z,12.60
2023-04-14T06:42:55.873Z,12.70
2023-04-14T06:45:22.927Z,12.90
2023-04-14T06:47:49.796Z,13.00
2023-04-14T06:50:16.713Z,13.10
2023-04-14T06:52:43.598Z,13.30
2023-04-14T06:55:10.789Z,13.40
2023-04-14T06:57:37.811Z,13.50
2023-04-14T07:00:07.256Z,13.70
2023-04-14T07:02:35.413Z,13.70
2023-04-14T07:05:02.906Z,13.90
2023-04-14T07:07:29.838Z,14.00
2023-04-14T07:09:56.750Z,14.10
2023-04-14T07:12:23.760Z,14.20
2023-04-14T07:14:53.376Z,14.30
2023-04-14T07:17:20.413Z,14.40
2023-04-14T07:19:47.486Z,14.50
2023-04-14T07:22:14.309Z,14.60
2023-04-14T07:24:41.196Z,14.70
2023-04-14T07:27:15.492Z,14.90
2023-04-14T09:09:16.472Z,11.20
2023-04-14T09:11:43.457Z,12.30
2023-04-14T09:14:13.147Z,14.00
2023-04-14T09:16:40.356Z,15.40
2023-04-14T09:19:08.725Z,16.40
2023-04-14T09:21:53.300Z,17.00
2023-04-14T09:24:31.015Z,17.50
2023-04-14T09:27:02.031Z,18.00
2023-04-14T09:29:29.554Z,18.20
2023-04-14T09:31:56.620Z,18.50
2023-04-14T09:34:23.654Z,18.80
2023-04-14T09:37:06.125Z,19.00
2023-04-14T09:39:33.895Z,19.20
2023-04-14T09:42:04.593Z,19.40
2023-04-14T09:44:31.561Z,19.60
2023-04-14T09:47:00.512Z,19.70
2023-04-14T09:49:28.388Z,19.80
2023-04-14T09:51:55.951Z,19.90
2023-04-14T09:54:26.571Z,19.90
2023-04-14T09:56:56.959Z,20.00
2023-04-14T09:59:37.214Z,20.00
2023-04-14T10:02:07.667Z,20.10
2023-04-14T10:04:35.539Z,20.10
2023-04-14T10:07:06.919Z,20.10
2023-04-14T10:09:37.939Z,20.10
2023-04-14T10:12:12.573Z,20.20
2023-04-14T10:14:41.005Z,20.30
2023-04-14T10:17:09.690Z,20.30
2023-04-14T10:19:38.782Z,20.40
2023-04-14T10:22:08.239Z,20.40
2023-04-14T10:24:35.737Z,20.40
2023-04-14T10:27:03.989Z,20.60
2023-04-14T10:29:31.171Z,20.70
2023-04-14T10:32:10.537Z,20.90
2023-04-14T10:34:40.516Z,21.00
2023-04-14T10:37:16.940Z,21.00
2023-04-14T10:39:43.927Z,21.20
2023-04-14T10:42:11.949Z,21.30
2023-04-14T10:44:42.085Z,21.30
2023-04-14T10:47:09.343Z,21.30
2023-04-14T10:49:42.120Z,21.30
2023-04-14T10:52:32.251Z,21.50
2023-04-14T10:55:08.137Z,21.60
2023-04-14T10:57:42.487Z,21.80
2023-04-14T11:00:22.265Z,21.90
2023-04-14T11:03:18.708Z,22.10
2023-04-14T11:05:49.068Z,22.10
2023-04-14T11:08:25.022Z,22.00
2023-04-14T11:11:01.420Z,22.20
2023-04-14T11:13:32.540Z,22.30
2023-04-14T11:16:07.860Z,22.40
2023-04-14T11:18:44.788Z,22.50
2023-04-14T11:21:16.429Z,22.70
2023-04-14T11:23:44.069Z,22.90
2023-04-14T11:26:12.305Z,23.10
2023-04-14T11:28:43.306Z,23.20
2023-04-14T11:31:13.619Z,23.40
2023-04-14T11:33:42.420Z,23.60
2023-04-14T11:36:12.755Z,23.70
2023-04-14T11:38:42.943Z,23.90
2023-04-14T11:41:10.526Z,23.90
2023-04-14T11:43:39.207Z,23.90
2023-04-14T11:46:08.479Z,23.90
2023-04-14T11:48:37.411Z,24.00
2023-04-14T11:51:04.347Z,24.20
2023-04-14T11:53:31.333Z,24.20
2023-04-14T11:55:58.246Z,24.20
2023-04-14T11:58:26.785Z,24.20
2023-04-14T12:00:56.170Z,24.30
2023-04-14T12:03:30.812Z,24.20
2023-04-14T12:06:03.672Z,24.30
2023-04-14T12:08:31.896Z,24.40
2023-04-14T12:10:58.945Z,24.60
2023-04-14T12:13:27.043Z,24.70
2023-04-14T12:15:54.866Z,24.90
2023-04-14T12:18:22.614Z,25.10
2023-04-14T12:20:55.594Z,25.20
2023-04-14T12:23:23.912Z,25.30
2023-04-14T12:25:51.610Z,25.40
2023-04-14T12:28:25.540Z,25.40
2023-04-14T12:30:53.453Z,25.40
2023-04-14T12:33:23.752Z,25.50
2023-04-14T12:35:51.651Z,25.70
2023-04-14T12:38:18.597Z,26.10
2023-04-14T12:40:47.869Z,26.50
2023-04-14T12:43:16.354Z,26.80
2023-04-14T12:45:48.595Z,27.10
2023-04-14T12:48:17.986Z,27.30
2023-04-14T12:50:45.140Z,27.50
2023-04-14T12:53:32.364Z,28.00
2023-04-14T12:56:16.178Z,28.20
2023-04-14T12:58:47.386Z,28.10
2023-04-14T13:01:17.250Z,28.00
2023-04-14T13:03:46.944Z,28.00
2023-04-14T13:06:18.702Z,28.30
2023-04-14T13:08:46.182Z,28.50
2023-04-14T13:11:17.520Z,28.50
2023-04-14T13:13:45.640Z,28.50
2023-04-14T13:16:16.811Z,28.70
2023-04-14T13:18:46.817Z,29.10
2023-04-14T13:21:13.994Z,29.50
2023-04-14T13:23:41.259Z,29.80
2023-04-14T13:26:08.493Z,30.10
2023-04-14T13:28:36.523Z,30.40
2023-04-14T13:31:03.458Z,30.80
2023-04-14T13:33:31.091Z,31.30
2023-04-14T13:35:57.997Z,31.70
2023-04-14T13:38:24.795Z,32.20
2023-04-14T13:40:51.469Z,32.60
2023-04-14T13:43:18.996Z,33.00
2023-04-14T13:45:47.072Z,32.90
2023-04-14T13:48:14.863Z,32.80
2023-04-14T13:50:41.956Z,32.90
2023-04-14T13:53:09.431Z,32.90
2023-04-14T13:55:36.612Z,33.00
2023-04-14T13:58:03.988Z,32.70
2023-04-14T14:00:31.262Z,32.80
2023-04-14T14:02:58.491Z,32.80
2023-04-14T14:05:25.777Z,33.10
2023-04-14T14:07:52.695Z,33.50
2023-04-14T14:10:19.944Z,33.70
2023-04-14T14:12:47.090Z,33.80
2023-04-14T14:15:13.936Z,33.20
2023-04-14T14:17:41.112Z,32.90
2023-04-14T14:20:09.777Z,32.50
2023-04-14T14:22:36.780Z,32.20
2023-04-14T14:25:15.253Z,31.80
2023-04-14T14:27:46.033Z,31.70
2023-04-14T14:30:13.894Z,31.70
2023-04-14T14:32:40.643Z,31.80
2023-04-14T14:35:08.553Z,32.20
2023-04-14T14:37:37.055Z,32.70
2023-04-14T14:40:04.327Z,33.20
2023-04-14T14:42:31.202Z,33.50
2023-04-14T14:44:58.056Z,33.60
2023-04-14T14:47:25.046Z,33.70
2023-04-14T14:49:59.617Z,34.00
2023-04-14T14:52:32.241Z,34.30
2023-04-14T14:54:59.317Z,34.40
2023-04-14T14:57:26.722Z,34.60
2023-04-14T14:59:54.634Z,34.90
2023-04-14T15:02:22.504Z,35.20
2023-04-14T15:04:50.733Z,35.50
2023-04-14T15:07:18.398Z,35.30
2023-04-14T15:09:49.241Z,35.20
2023-04-14T15:12:16.863Z,35.40
2023-04-14T15:14:44.635Z,35.40
2023-04-14T15:17:11.803Z,35.50
2023-04-14T15:19:38.655Z,35.30
2023-04-14T15:22:05.815Z,35.10
2023-04-14T15:24:32.965Z,35.10
2023-04-14T15:26:59.967Z,35.10
2023-04-14T15:29:26.857Z,35.00
2023-04-14T15:31:54.058Z,34.90
2023-04-14T15:34:21.701Z,34.40
2023-04-14T15:36:48.835Z,33.80
2023-04-14T15:39:15.830Z,33.10
2023-04-14T15:41:42.757Z,32.40
2023-04-14T15:44:09.515Z,31.80
2023-04-14T15:46:36.296Z,31.10
2023-04-14T15:49:03.079Z,30.50
2023-04-14T15:51:31.270Z,30.00
2023-04-14T15:53:57.991Z,29.60
2023-04-14T15:56:24.831Z,29.20
2023-04-14T15:58:51.827Z,28.90
2023-04-14T16:01:20.700Z,28.60
2023-04-14T16:03:48.405Z,28.40
2023-04-14T16:06:17.019Z,28.30
2023-04-14T16:08:43.865Z,28.30
2023-04-14T16:11:17.529Z,28.50
2023-04-14T16:13:44.525Z,29.00
2023-04-14T16:16:13.849Z,29.70
2023-04-14T16:18:40.806Z,30.50
2023-04-14T16:21:08.014Z,31.40
2023-04-14T16:23:34.907Z,32.00
2023-04-14T16:26:01.909Z,32.30
2023-04-14T16:28:28.964Z,32.30
2023-04-14T16:31:02.086Z,32.00
2023-04-14T16:33:34.384Z,32.10
2023-04-14T16:36:06.406Z,32.20
2023-04-14T16:38:36.305Z,32.30
2023-04-14T16:41:03.549Z,32.20
2023-04-14T16:43:31.010Z,31.90
2023-04-14T16:46:12.197Z,31.60
2023-04-14T16:48:39.342Z,31.60
2023-04-14T16:51:08.486Z,31.40
2023-04-14T16:53:39.552Z,31.10
2023-04-14T16:56:09.828Z,30.80
2023-04-14T16:58:38.149Z,30.30
2023-04-14T17:01:07.312Z,30.00
2023-04-14T17:03:35.960Z,29.50
2023-04-14T17:06:05.011Z,29.10
2023-04-14T17:08:34.512Z,28.70
2023-04-14T17:11:01.430Z,28.30
2023-04-14T17:13:29.186Z,28.00
2023-04-14T17:16:06.051Z,27.70
2023-04-14T17:18:38.286Z,27.40
2023-04-14T17:21:06.464Z,27.10
2023-04-14T17:23:37.880Z,26.80
2023-04-14T17:26:17.205Z,26.60
2023-04-14T17:28:44.853Z,26.30
2023-04-14T17:31:16.579Z,26.10
2023-04-14T17:33:45.507Z,25.90
2023-04-14T17:36:15.269Z,25.70
2023-04-14T17:38:43.291Z,25.50
2023-04-14T17:41:12.613Z,25.30
2023-04-14T17:43:41.400Z,25.20
2023-04-14T17:46:09.184Z,25.00
2023-04-14T17:48:36.120Z,24.90
2023-04-14T17:51:05.135Z,24.80
2023-04-14T17:53:36.243Z,24.70
2023-04-14T17:56:04.876Z,24.60
2023-04-14T17:58:33.235Z,24.50
2023-04-14T18:01:00.508Z,24.40
2023-04-14T18:03:29.191Z,24.30
2023-04-14T18:05:57.346Z,24.20
2023-04-14T18:08:26.344Z,24.00
2023-04-14T18:10:53.093Z,23.90
2023-04-14T18:13:20.129Z,23.80
2023-04-14T18:15:51.328Z,23.80
2023-04-14T18:18:19.013Z,23.70
2023-04-14T18:20:50.355Z,23.50
2023-04-14T18:23:20.967Z,23.40
2023-04-14T18:28:17.927Z,23.10
2023-04-14T18:30:51.959Z,22.90
2023-04-14T18:33:20.757Z,22.80
2023-04-14T18:35:57.200Z,22.60
2023-04-14T18:38:31.665Z,22.40
2023-04-14T18:41:05.439Z,22.30
2023-04-14T18:43:33.763Z,22.20
2023-04-14T18:46:00.886Z,22.10
2023-04-14T18:48:28.702Z,22.00
2023-04-14T18:51:01.973Z,22.00
2023-04-14T18:53:29.288Z,21.90
2023-04-14T18:55:56.156Z,21.80
2023-04-14T18:58:23.792Z,21.70
2023-04-14T19:00:50.710Z,21.70
2023-04-14T19:03:18.815Z,21.60
2023-04-14T19:05:46.678Z,21.50
2023-04-14T19:08:13.496Z,21.40
2023-04-14T19:10:40.638Z,21.30
2023-04-14T19:13:07.745Z,21.30
2023-04-14T19:15:35.615Z,21.10
2023-04-14T19:18:03.695Z,21.10
2023-04-14T19:20:32.109Z,21.00
2023-04-14T19:22:59.186Z,21.00
2023-04-14T19:25:26.733Z,20.90
2023-04-14T19:27:53.573Z,20.80
2023-04-14T19:30:20.609Z,20.70
2023-04-14T19:32:48.111Z,20.60
2023-04-14T19:35:15.056Z,20.50
2023-04-14T19:37:42.064Z,20.50
2023-04-14T19:40:11.040Z,20.40
2023-04-14T19:42:39.151Z,20.30
2023-04-14T19:45:07.908Z,20.20
2023-04-14T19:47:35.034Z,20.20
2023-04-14T19:50:02.528Z,20.10
2023-04-14T19:52:30.896Z,20.00
2023-04-14T19:54:58.259Z,19.90
2023-04-14T19:57:25.032Z,19.80
2023-04-14T19:59:51.788Z,19.70
2023-04-14T20:02:19.026Z,19.60
2023-04-14T20:04:46.953Z,19.50
2023-04-14T20:07:13.766Z,19.30
2023-04-14T20:09:44.958Z,19.20
2023-04-14T20:12:12.199Z,19.10
2023-04-14T20:14:39.396Z,19.10
2023-04-14T20:17:06.509Z,19.00
2023-04-14T20:19:33.250Z,18.90
2023-04-14T20:22:00.039Z,18.80
2023-04-14T20:24:26.931Z,18.70
2023-04-14T20:26:53.774Z,18.60
2023-04-14T20:29:21.723Z,18.60
2023-04-14T20:31:49.501Z,18.50
2023-04-14T20:34:16.611Z,18.40
2023-04-14T20:36:45.018Z,18.30
2023-04-14T20:39:11.874Z,18.30
2023-04-14T20:41:38.971Z,18.20
2023-04-14T20:44:07.815Z,18.10
2023-04-14T20:46:34.878Z,18.00
2023-04-14T20:49:02.743Z,17.90
2023-04-14T20:51:30.096Z,17.80
2023-04-14T20:53:57.235Z,17.70
2023-04-14T20:56:28.118Z,17.50
2023-04-14T20:58:55.321Z,17.50
2023-04-14T21:01:23.917Z,17.50
2023-04-14T21:03:50.897Z,17.40
2023-04-14T21:06:18.103Z,17.30
2023-04-14T21:08:44.834Z,17.20
2023-04-14T21:11:15.500Z,17.10
2023-04-14T21:15:30.920Z,16.90
2023-04-14T21:16:33.924Z,16.80
2023-04-14T21:19:02.518Z,16.60
2023-04-14T21:21:29.982Z,16.50
2023-04-14T21:23:57.020Z,16.40
2023-04-14T21:26:24.121Z,16.40
2023-04-14T21:28:53.333Z,16.30
2023-04-14T21:31:20.664Z,16.20
2023-04-14T21:33:47.831Z,16.10
2023-04-14T21:36:14.735Z,16.10
2023-04-14T21:38:41.456Z,16.10
2023-04-14T21:41:08.817Z,16.00
2023-04-14T21:43:37.768Z,15.90
2023-04-14T21:46:05.668Z,15.80
2023-04-14T21:48:32.972Z,15.70
2023-04-14T21:50:59.776Z,15.60
2023-04-14T21:53:27.305Z,15.50
2023-04-14T21:56:09.358Z,15.50
2023-04-14T21:58:39.252Z,15.40
2023-04-14T22:01:07.199Z,15.40
2023-04-14T22:03:34.183Z,15.40
2023-04-14T22:06:01.316Z,15.30
2023-04-14T22:08:28.369Z,15.30
2023-04-14T22:10:55.869Z,15.30
2023-04-14T22:13:22.791Z,15.20
2023-04-14T22:15:50.169Z,15.20
2023-04-14T22:18:17.303Z,15.20
2023-04-14T22:20:45.291Z,15.10
2023-04-14T22:23:13.612Z,15.00
2023-04-14T22:25:40.801Z,14.90
2023-04-14T22:28:07.723Z,14.90
2023-04-14T22:30:35.365Z,14.90
2023-04-14T22:33:03.732Z,14.80
2023-04-14T22:35:31.054Z,14.80
2023-04-14T22:37:57.943Z,14.70
2023-04-14T22:40:24.750Z,14.70
2023-04-14T22:42:51.793Z,14.60
2023-04-14T22:45:18.703Z,14.50
2023-04-14T22:47:45.990Z,14.50
2023-04-14T22:50:14.536Z,14.40
2023-04-14T22:52:41.465Z,14.30
2023-04-14T22:55:11.940Z,14.30
2023-04-14T22:57:38.885Z,14.20
2023-04-14T23:00:09.572Z,14.20
2023-04-14T23:02:36.788Z,14.10
2023-04-14T23:05:04.268Z,14.20
2023-04-14T23:07:31.284Z,14.20
2023-04-14T23:09:58.138Z,14.20
2023-04-14T23:12:25.531Z,14.20
2023-04-14T23:14:53.908Z,14.20
2023-04-14T23:17:20.984Z,14.10
2023-04-14T23:19:47.925Z,14.10
2023-04-14T23:22:15.488Z,14.00
2023-04-14T23:24:42.919Z,14.00
2023-04-14T23:27:09.705Z,13.90
2023-04-14T23:29:37.674Z,13.80
2023-04-14T23:32:06.198Z,13.80
2023-04-14T23:34:33.050Z,13.80
2023-04-14T23:37:00.041Z,13.70
2023-04-14T23:39:27.653Z,13.70
2023-04-14T23:41:54.600Z,13.70
2023-04-14T23:44:21.393Z,13.70
2023-04-14T23:46:48.386Z,13.70
2023-04-14T23:49:24.356Z,13.60
2023-04-14T23:52:00.954Z,13.60
2023-04-14T23:54:28.033Z,13.70
2023-04-14T23:56:54.864Z,13.70
2023-04-14T23:59:21.928Z,13.70
